createdAt,value
2018-07-23T00:01:47.189Z,16.80
2018-07-23T00:04:15.659Z,16.80
2018-07-23T00:06:44.103Z,16.80
2018-07-23T00:09:12.578Z,16.80
2018-07-23T00:11:40.926Z,16.90
2018-07-23T00:14:09.479Z,17.00
2018-07-23T00:16:37.906Z,16.90
2018-07-23T00:19:06.391Z,17.00
2018-07-23T00:21:34.943Z,16.90
2018-07-23T00:24:03.374Z,17.00
2018-07-23T00:26:31.835Z,17.00
2018-07-23T00:29:00.245Z,17.00
2018-07-23T00:31:28.622Z,17.00
2018-07-23T00:33:57.181Z,17.00
2018-07-23T00:36:25.783Z,17.00
2018-07-23T00:38:54.484Z,17.00
2018-07-23T00:41:23.286Z,17.00
2018-07-23T00:43:52.182Z,17.00
2018-07-23T00:46:20.870Z,17.00
2018-07-23T00:48:49.581Z,17.00
2018-07-23T00:51:18.241Z,17.10
2018-07-23T00:53:46.663Z,17.00
2018-07-23T00:56:15.094Z,17.10
2018-07-23T00:58:43.484Z,17.00
2018-07-23T01:01:11.843Z,17.10
2018-07-23T01:03:40.365Z,17.10
2018-07-23T01:06:08.839Z,17.10
2018-07-23T01:08:37.298Z,17.10
2018-07-23T01:11:06.317Z,17.10
2018-07-23T01:13:34.740Z,17.10
2018-07-23T01:16:03.165Z,17.10
2018-07-23T01:18:31.663Z,17.10
2018-07-23T01:23:28.236Z,17.00
2018-07-23T01:25:56.783Z,17.00
2018-07-23T01:28:25.319Z,17.00
2018-07-23T01:30:54.044Z,17.00
2018-07-23T01:33:22.803Z,17.00
2018-07-23T01:35:51.362Z,17.00
2018-07-23T01:38:20.192Z,17.00
2018-07-23T01:40:48.836Z,17.10
2018-07-23T01:43:17.165Z,17.00
2018-07-23T01:45:45.567Z,17.00
2018-07-23T01:48:13.948Z,17.00
2018-07-23T01:53:10.750Z,17.00
2018-07-23T01:55:39.335Z,17.00
2018-07-23T01:58:07.837Z,17.00
2018-07-23T02:00:36.340Z,17.00
2018-07-23T02:03:04.883Z,17.00
2018-07-23T02:05:33.369Z,17.00
2018-07-23T02:08:01.793Z,17.10
2018-07-23T02:10:30.314Z,17.00
2018-07-23T02:12:58.691Z,17.00
2018-07-23T02:15:27.236Z,16.90
2018-07-23T02:17:55.780Z,16.90
2018-07-23T02:20:24.357Z,16.80
2018-07-23T02:22:53.057Z,16.80
2018-07-23T02:25:21.826Z,16.90
2018-07-23T02:30:19.327Z,16.90
2018-07-23T02:32:47.781Z,16.90
2018-07-23T02:35:16.184Z,16.90
2018-07-23T02:37:44.565Z,16.90
2018-07-23T02:40:13.032Z,16.90
2018-07-23T02:42:41.639Z,16.80
2018-07-23T02:45:10.247Z,16.90
2018-07-23T02:47:38.896Z,16.90
2018-07-23T02:50:07.360Z,16.90
2018-07-23T02:52:35.855Z,16.90
2018-07-23T02:55:04.260Z,16.90
2018-07-23T02:57:32.772Z,16.80
2018-07-23T03:00:01.259Z,16.90
2018-07-23T03:04:57.756Z,16.90
2018-07-23T03:07:26.262Z,16.90
2018-07-23T03:09:54.701Z,16.90
2018-07-23T03:12:23.481Z,16.80
2018-07-23T03:14:52.488Z,16.90
2018-07-23T03:17:21.298Z,16.90
2018-07-23T03:19:50.054Z,16.90
2018-07-23T03:22:18.634Z,16.90
2018-07-23T03:24:47.130Z,16.90
2018-07-23T03:27:15.592Z,16.90
2018-07-23T03:29:44.033Z,16.90
2018-07-23T03:32:12.453Z,16.90
2018-07-23T03:34:40.971Z,16.90
2018-07-23T03:37:09.571Z,16.90
2018-07-23T03:39:38.128Z,16.90
2018-07-23T03:42:06.523Z,16.90
2018-07-23T03:44:34.964Z,16.90
2018-07-23T03:47:03.408Z,16.90
2018-07-23T03:51:59.943Z,17.00
2018-07-23T03:54:28.296Z,17.10
2018-07-23T03:56:56.768Z,17.10
2018-07-23T03:59:25.237Z,17.10
2018-07-23T04:01:53.925Z,17.10
2018-07-23T04:04:22.435Z,17.10
2018-07-23T04:06:51.279Z,17.20
2018-07-23T04:09:20.095Z,17.20
2018-07-23T04:11:48.620Z,17.20
2018-07-23T04:14:17.050Z,17.30
2018-07-23T04:16:45.527Z,17.30
2018-07-23T04:19:13.894Z,17.30
2018-07-23T04:24:20.105Z,17.30
2018-07-23T04:26:48.795Z,17.30
2018-07-23T04:29:17.248Z,17.40
2018-07-23T04:31:45.636Z,17.40
2018-07-23T04:34:14.048Z,17.50
2018-07-23T04:36:42.501Z,17.50
2018-07-23T04:39:11.019Z,17.60
2018-07-23T04:41:39.604Z,17.70
2018-07-23T04:44:08.044Z,17.70
2018-07-23T04:46:36.460Z,17.70
2018-07-23T04:49:11.186Z,17.70
2018-07-23T04:51:43.207Z,17.90
2018-07-23T04:54:11.657Z,18.00
2018-07-23T04:56:40.213Z,17.90
2018-07-23T04:59:08.567Z,17.90
2018-07-23T05:01:36.980Z,18.00
2018-07-23T05:04:05.707Z,18.00
2018-07-23T05:06:34.212Z,18.00
2018-07-23T05:09:09.058Z,18.20
2018-07-23T05:11:37.556Z,18.20
2018-07-23T05:14:06.472Z,18.20
2018-07-23T05:16:34.918Z,18.30
2018-07-23T05:19:03.336Z,18.30
2018-07-23T05:21:31.756Z,18.30
2018-07-23T05:24:00.228Z,18.20
2018-07-23T05:26:39.030Z,18.20
2018-07-23T05:29:21.175Z,18.00
2018-07-23T05:31:50.178Z,18.00
2018-07-23T05:34:19.470Z,17.90
2018-07-23T05:36:48.201Z,18.10
2018-07-23T05:39:21.084Z,18.10
2018-07-23T05:41:54.061Z,18.10
2018-07-23T05:44:22.995Z,18.20
2018-07-23T05:46:51.745Z,18.20
2018-07-23T05:49:20.792Z,18.30
2018-07-23T05:51:49.974Z,18.40
2018-07-23T05:54:18.475Z,18.30
2018-07-23T05:56:46.907Z,18.30
2018-07-23T05:59:20.939Z,18.20
2018-07-23T06:01:49.982Z,18.30
2018-07-23T06:04:22.637Z,18.40
2018-07-23T06:06:51.541Z,18.40
2018-07-23T06:09:20.654Z,18.60
2018-07-23T06:11:50.062Z,18.60
2018-07-23T06:14:18.609Z,18.70
2018-07-23T06:16:47.038Z,18.70
2018-07-23T06:19:15.448Z,18.80
2018-07-23T06:21:43.828Z,18.80
2018-07-23T06:24:12.324Z,18.90
2018-07-23T06:26:41.020Z,19.10
2018-07-23T06:29:09.777Z,19.30
2018-07-23T06:31:38.972Z,19.30
2018-07-23T06:34:07.716Z,19.20
2018-07-23T06:36:35.957Z,19.40
2018-07-23T06:39:07.232Z,19.30
2018-07-23T06:41:35.762Z,19.10
2018-07-23T06:44:03.987Z,19.30
2018-07-23T06:46:32.267Z,19.30
2018-07-23T06:49:00.512Z,19.50
2018-07-23T06:51:28.739Z,19.60
2018-07-23T06:53:56.985Z,19.80
2018-07-23T06:56:25.205Z,19.90
2018-07-23T06:58:53.684Z,20.10
2018-07-23T07:01:22.022Z,20.20
2018-07-23T07:03:50.468Z,20.30
2018-07-23T07:06:20.600Z,20.40
2018-07-23T07:08:49.110Z,20.80
2018-07-23T07:11:17.607Z,21.10
2018-07-23T07:13:46.064Z,21.00
2018-07-23T07:16:14.471Z,20.90
2018-07-23T07:18:42.935Z,20.80
2018-07-23T07:21:11.332Z,20.70
2018-07-23T07:23:39.776Z,20.70
2018-07-23T07:26:08.137Z,20.80
2018-07-23T07:28:36.520Z,20.90
2018-07-23T07:31:05.004Z,21.30
2018-07-23T07:33:33.420Z,21.10
2018-07-23T07:36:01.740Z,20.80
2018-07-23T07:38:30.168Z,20.60
2018-07-23T07:40:58.560Z,20.40
2018-07-23T07:43:26.955Z,20.60
2018-07-23T07:45:55.546Z,20.70
2018-07-23T07:48:24.151Z,20.70
2018-07-23T07:50:52.771Z,21.50
2018-07-23T07:53:21.372Z,22.80
2018-07-23T07:55:50.113Z,23.90
2018-07-23T07:58:18.644Z,24.60
2018-07-23T08:00:46.994Z,25.20
2018-07-23T08:03:15.491Z,25.60
2018-07-23T08:05:43.896Z,25.80
2018-07-23T08:08:12.462Z,25.80
2018-07-23T08:10:40.897Z,25.50
2018-07-23T08:13:09.468Z,25.60
2018-07-23T08:15:38.028Z,26.40
2018-07-23T08:18:06.470Z,25.90
2018-07-23T08:20:35.024Z,25.70
2018-07-23T08:23:03.428Z,25.70
2018-07-23T08:25:31.802Z,25.80
2018-07-23T08:28:00.195Z,25.40
2018-07-23T08:30:28.560Z,25.90
2018-07-23T08:32:56.955Z,26.30
2018-07-23T08:35:25.452Z,27.30
2018-07-23T08:37:54.032Z,27.20
2018-07-23T08:40:22.540Z,27.20
2018-07-23T08:42:51.099Z,26.80
2018-07-23T08:45:20.268Z,26.30
2018-07-23T08:47:49.714Z,26.60
2018-07-23T08:50:18.305Z,26.40
2018-07-23T08:52:46.736Z,25.70
2018-07-23T08:55:15.115Z,25.90
2018-07-23T08:57:43.542Z,25.70
2018-07-23T09:00:12.147Z,26.40
2018-07-23T09:02:40.600Z,26.30
2018-07-23T09:05:09.092Z,25.50
2018-07-23T09:10:05.839Z,26.20
2018-07-23T09:12:34.345Z,27.30
2018-07-23T09:15:02.763Z,28.20
2018-07-23T09:17:31.143Z,29.30
2018-07-23T09:19:59.601Z,28.40
2018-07-23T09:22:27.973Z,28.00
2018-07-23T09:27:24.567Z,27.50
2018-07-23T09:29:53.156Z,26.70
2018-07-23T09:32:21.739Z,26.00
2018-07-23T09:34:50.688Z,26.70
2018-07-23T09:39:47.760Z,26.70
2018-07-23T09:42:16.167Z,26.80
2018-07-23T09:44:44.590Z,26.70
2018-07-23T09:47:12.986Z,26.80
2018-07-23T09:49:41.552Z,26.80
2018-07-23T09:52:10.109Z,27.20
2018-07-23T09:54:38.670Z,27.80
2018-07-23T09:57:07.057Z,28.30
2018-07-23T09:59:35.427Z,28.30
2018-07-23T10:02:03.843Z,29.10
2018-07-23T10:04:32.297Z,30.20
2018-07-23T10:07:00.738Z,28.50
2018-07-23T10:09:29.147Z,29.70
2018-07-23T10:14:25.841Z,30.30
2018-07-23T10:16:54.377Z,30.50
2018-07-23T10:19:23.155Z,30.70
2018-07-23T10:21:51.911Z,30.80
2018-07-23T10:24:21.018Z,30.50
2018-07-23T10:26:49.615Z,30.20
2018-07-23T10:29:18.509Z,28.90
2018-07-23T10:31:47.080Z,27.60
2018-07-23T10:34:15.720Z,28.10
2018-07-23T10:36:44.292Z,28.60
2018-07-23T10:39:12.764Z,28.00
2018-07-23T10:41:41.300Z,28.80
2018-07-23T10:44:09.887Z,29.90
2018-07-23T10:46:38.343Z,31.10
2018-07-23T10:49:06.803Z,31.00
2018-07-23T10:51:35.252Z,30.30
2018-07-23T10:54:03.736Z,32.60
2018-07-23T10:56:38.595Z,32.80
2018-07-23T10:59:06.987Z,34.90
2018-07-23T11:01:35.328Z,33.40
2018-07-23T11:04:03.724Z,33.30
2018-07-23T11:06:32.151Z,31.80
2018-07-23T11:09:00.579Z,30.90
2018-07-23T11:11:29.056Z,30.40
2018-07-23T11:13:57.645Z,32.20
2018-07-23T11:16:26.191Z,32.80
2018-07-23T11:18:54.788Z,32.40
2018-07-23T11:21:23.492Z,31.60
2018-07-23T11:23:52.206Z,31.30
2018-07-23T11:26:20.995Z,31.80
2018-07-23T11:28:49.586Z,31.30
2018-07-23T11:31:18.044Z,30.60
2018-07-23T11:33:46.499Z,29.70
2018-07-23T11:36:15.036Z,27.20
2018-07-23T11:38:43.426Z,26.70
2018-07-23T11:41:11.998Z,26.30
2018-07-23T11:43:40.940Z,26.50
2018-07-23T11:46:24.418Z,26.60
2018-07-23T11:48:38.218Z,26.50
2018-07-23T11:51:06.927Z,25.80
2018-07-23T11:53:35.694Z,25.50
2018-07-23T11:56:04.187Z,25.10
2018-07-23T11:58:32.596Z,24.80
2018-07-23T12:01:01.540Z,24.60
2018-07-23T12:03:30.151Z,24.50
2018-07-23T12:05:59.083Z,24.60
2018-07-23T12:08:27.737Z,24.60
2018-07-23T12:10:56.404Z,24.60
2018-07-23T12:13:24.964Z,24.50
2018-07-23T12:15:53.511Z,24.40
2018-07-23T12:18:22.101Z,24.40
2018-07-23T12:20:51.243Z,25.50
2018-07-23T12:23:19.795Z,27.40
2018-07-23T12:28:16.800Z,30.60
2018-07-23T12:30:45.312Z,31.00
2018-07-23T12:33:14.091Z,31.40
2018-07-23T12:35:42.692Z,31.00
2018-07-23T12:38:11.391Z,30.90
2018-07-23T12:40:39.814Z,30.60
2018-07-23T12:43:08.430Z,30.80
2018-07-23T12:45:37.261Z,30.60
2018-07-23T12:48:05.740Z,30.50
2018-07-23T12:50:34.477Z,32.10
2018-07-23T12:53:03.020Z,33.00
2018-07-23T12:55:31.655Z,32.60
2018-07-23T12:58:00.151Z,31.60
2018-07-23T13:00:28.648Z,30.60
2018-07-23T13:02:57.151Z,30.50
2018-07-23T13:05:26.548Z,30.30
2018-07-23T13:07:55.503Z,29.30
2018-07-23T13:10:24.127Z,28.00
2018-07-23T13:12:53.368Z,26.90
2018-07-23T13:15:23.782Z,25.60
2018-07-23T13:17:53.596Z,24.60
2018-07-23T13:20:22.753Z,24.40
2018-07-23T13:22:51.467Z,24.40
2018-07-23T13:25:20.283Z,24.40
2018-07-23T13:27:48.761Z,24.40
2018-07-23T13:30:17.133Z,24.60
2018-07-23T13:32:46.248Z,24.50
2018-07-23T13:35:14.819Z,24.60
2018-07-23T13:37:44.008Z,24.70
2018-07-23T13:40:12.585Z,24.70
2018-07-23T13:42:41.232Z,25.40
2018-07-23T13:45:09.758Z,26.70
2018-07-23T13:47:38.307Z,27.70
2018-07-23T13:50:06.724Z,28.70
2018-07-23T13:52:35.207Z,28.80
2018-07-23T13:55:03.573Z,30.00
2018-07-23T13:57:31.910Z,29.90
2018-07-23T14:00:00.324Z,29.60
2018-07-23T14:02:28.894Z,28.90
2018-07-23T14:04:57.509Z,28.40
2018-07-23T14:07:26.061Z,28.90
2018-07-23T14:09:54.897Z,30.10
2018-07-23T14:12:23.568Z,29.80
2018-07-23T14:14:52.312Z,30.50
2018-07-23T14:19:49.179Z,28.90
2018-07-23T14:22:17.612Z,28.90
2018-07-23T14:24:45.998Z,28.90
2018-07-23T14:27:14.444Z,29.10
2018-07-23T14:29:42.865Z,28.90
2018-07-23T14:32:11.304Z,28.60
2018-07-23T14:34:39.705Z,28.50
2018-07-23T14:37:08.169Z,28.00
2018-07-23T14:39:36.716Z,27.80
2018-07-23T14:42:05.240Z,27.60
2018-07-23T14:44:33.708Z,27.90
2018-07-23T14:47:02.152Z,28.20
2018-07-23T14:49:30.609Z,27.70
2018-07-23T14:51:59.215Z,27.40
2018-07-23T14:54:27.740Z,27.60
2018-07-23T14:59:24.503Z,27.20
2018-07-23T15:01:53.243Z,27.00
2018-07-23T15:04:21.848Z,26.30
2018-07-23T15:06:50.879Z,26.00
2018-07-23T15:09:19.469Z,25.70
2018-07-23T15:11:48.609Z,25.40
2018-07-23T15:14:17.023Z,25.30
2018-07-23T15:16:45.360Z,25.40
2018-07-23T15:19:13.747Z,25.30
2018-07-23T15:21:42.230Z,25.10
2018-07-23T15:24:10.683Z,25.10
2018-07-23T15:26:39.240Z,25.20
2018-07-23T15:29:07.865Z,25.50
2018-07-23T15:31:36.401Z,25.60
2018-07-23T15:34:04.831Z,26.00
2018-07-23T15:36:33.272Z,26.40
2018-07-23T15:39:01.660Z,26.50
2018-07-23T15:41:30.311Z,26.40
2018-07-23T15:43:58.860Z,26.10
2018-07-23T15:46:27.237Z,26.00
2018-07-23T15:48:56.356Z,26.30
2018-07-23T15:51:24.659Z,26.40
2018-07-23T15:53:53.043Z,26.50
2018-07-23T15:56:21.379Z,26.40
2018-07-23T16:01:19.285Z,26.10
2018-07-23T16:03:47.532Z,26.10
2018-07-23T16:06:15.943Z,26.00
2018-07-23T16:08:44.290Z,25.90
2018-07-23T16:11:12.531Z,25.60
2018-07-23T16:13:40.925Z,25.50
2018-07-23T16:16:09.153Z,25.20
2018-07-23T16:18:37.354Z,24.80
2018-07-23T16:21:05.594Z,24.20
2018-07-23T16:23:33.882Z,23.70
2018-07-23T16:26:02.102Z,23.00
2018-07-23T16:28:30.308Z,22.40
2018-07-23T16:30:58.554Z,22.10
2018-07-23T16:33:26.944Z,21.90
2018-07-23T16:35:55.510Z,21.70
2018-07-23T16:38:24.174Z,21.60
2018-07-23T16:40:52.677Z,21.60
2018-07-23T16:45:49.469Z,21.50
2018-07-23T16:48:17.915Z,21.40
2018-07-23T16:50:46.137Z,21.40
2018-07-23T16:53:14.351Z,21.40
2018-07-23T16:55:42.600Z,21.40
2018-07-23T16:58:10.767Z,21.40
2018-07-23T17:00:39.149Z,21.50
2018-07-23T17:03:07.393Z,21.50
2018-07-23T17:05:35.612Z,21.40
2018-07-23T17:08:03.871Z,21.40
2018-07-23T17:10:32.365Z,21.40
2018-07-23T17:13:00.611Z,21.40
2018-07-23T17:15:28.833Z,21.30
2018-07-23T17:17:57.172Z,21.20
2018-07-23T17:20:25.411Z,21.20
2018-07-23T17:22:53.831Z,21.20
2018-07-23T17:25:22.527Z,21.20
2018-07-23T17:27:51.071Z,21.20
2018-07-23T17:30:19.467Z,21.20
2018-07-23T17:32:47.693Z,21.20
2018-07-23T17:35:15.959Z,21.00
2018-07-23T17:37:44.165Z,21.10
2018-07-23T17:40:12.411Z,21.00
2018-07-23T17:42:40.775Z,21.10
2018-07-23T17:45:09.177Z,21.10
2018-07-23T17:47:37.380Z,21.10
2018-07-23T17:50:05.690Z,21.20
2018-07-23T17:52:33.898Z,21.10
2018-07-23T17:55:05.704Z,21.20
2018-07-23T17:57:33.909Z,21.10
2018-07-23T18:00:02.352Z,20.60
2018-07-23T18:02:30.690Z,20.40
2018-07-23T18:05:01.423Z,20.20
2018-07-23T18:10:18.702Z,19.90
2018-07-23T18:12:50.024Z,19.70
2018-07-23T18:15:20.051Z,19.60
2018-07-23T18:17:49.463Z,19.60
2018-07-23T18:20:19.104Z,19.60
2018-07-23T18:22:48.873Z,19.60
2018-07-23T18:25:17.261Z,19.60
2018-07-23T18:27:45.464Z,19.50
2018-07-23T18:30:13.686Z,19.60
2018-07-23T18:32:41.902Z,19.80
2018-07-23T18:35:10.139Z,19.80
2018-07-23T18:37:38.419Z,19.80
2018-07-23T18:40:06.658Z,19.80
2018-07-23T18:42:34.937Z,19.70
2018-07-23T18:45:03.121Z,19.80
2018-07-23T18:47:31.325Z,19.80
2018-07-23T18:50:00.443Z,19.80
2018-07-23T18:54:59.902Z,19.70
2018-07-23T18:57:28.158Z,19.60
2018-07-23T18:59:56.514Z,19.60
2018-07-23T19:02:25.003Z,19.60
2018-07-23T19:04:54.034Z,19.50
2018-07-23T19:07:22.521Z,19.40
2018-07-23T19:09:51.030Z,19.30
2018-07-23T19:12:19.623Z,19.20
2018-07-23T19:14:47.881Z,19.20
2018-07-23T19:17:16.122Z,19.30
2018-07-23T19:19:44.350Z,19.20
2018-07-23T19:22:12.709Z,19.20
2018-07-23T19:24:40.989Z,19.10
2018-07-23T19:27:09.224Z,19.10
2018-07-23T19:29:37.447Z,19.00
2018-07-23T19:32:05.739Z,18.90
2018-07-23T19:34:34.002Z,18.80
2018-07-23T19:37:02.246Z,18.70
2018-07-23T19:39:30.507Z,18.70
2018-07-23T19:41:58.792Z,18.70
2018-07-23T19:44:27.031Z,18.60
2018-07-23T19:46:55.342Z,18.60
2018-07-23T19:49:23.767Z,18.60
2018-07-23T19:51:53.599Z,18.60
2018-07-23T19:56:51.519Z,18.50
2018-07-23T19:59:20.346Z,18.40
2018-07-23T20:01:48.692Z,18.30
2018-07-23T20:04:16.955Z,18.30
2018-07-23T20:09:14.736Z,18.30
2018-07-23T20:11:42.918Z,18.40
2018-07-23T20:14:11.319Z,18.40
2018-07-23T20:16:39.580Z,18.40
2018-07-23T20:19:07.972Z,18.30
2018-07-23T20:21:36.215Z,18.40
2018-07-23T20:24:04.462Z,18.40
2018-07-23T20:26:32.694Z,18.30
2018-07-23T20:29:01.350Z,18.40
2018-07-23T20:31:29.874Z,18.30
2018-07-23T20:33:59.791Z,18.40
2018-07-23T20:36:28.398Z,18.40
2018-07-23T20:38:57.139Z,18.40
2018-07-23T20:41:27.787Z,18.40
2018-07-23T20:43:57.589Z,18.40
2018-07-23T20:46:26.363Z,18.30
2018-07-23T20:48:54.941Z,18.30
2018-07-23T20:51:23.606Z,18.30
2018-07-23T20:56:22.299Z,18.20
2018-07-23T20:58:51.457Z,18.10
2018-07-23T21:01:21.107Z,18.00
2018-07-23T21:03:50.869Z,18.00
2018-07-23T21:06:20.349Z,18.00
2018-07-23T21:08:49.171Z,18.00
2018-07-23T21:11:17.668Z,18.00
2018-07-23T21:13:46.150Z,17.90
2018-07-23T21:16:14.791Z,17.90
2018-07-23T21:18:43.130Z,17.90
2018-07-23T21:21:12.244Z,17.90
2018-07-23T21:23:40.603Z,17.90
2018-07-23T21:26:08.974Z,17.80
2018-07-23T21:28:37.206Z,17.80
2018-07-23T21:31:05.419Z,17.80
2018-07-23T21:33:33.678Z,17.70
2018-07-23T21:36:02.034Z,17.60
2018-07-23T21:38:30.258Z,17.60
2018-07-23T21:40:58.482Z,17.50
2018-07-23T21:43:26.727Z,17.50
2018-07-23T21:45:55.205Z,17.50
2018-07-23T21:48:23.826Z,17.40
2018-07-23T21:50:52.430Z,17.30
2018-07-23T21:53:21.310Z,17.20
2018-07-23T21:58:18.090Z,17.10
2018-07-23T22:00:46.400Z,17.00
2018-07-23T22:03:14.571Z,17.00
2018-07-23T22:05:42.779Z,17.00
2018-07-23T22:08:11.199Z,16.90
2018-07-23T22:10:39.574Z,16.90
2018-07-23T22:13:07.872Z,16.90
2018-07-23T22:15:36.072Z,16.90
2018-07-23T22:18:04.291Z,16.90
2018-07-23T22:20:32.503Z,16.80
2018-07-23T22:23:00.739Z,16.80
2018-07-23T22:25:28.946Z,16.80
2018-07-23T22:27:57.206Z,16.70
2018-07-23T22:30:25.574Z,16.80
2018-07-23T22:32:54.067Z,16.70
2018-07-23T22:35:22.736Z,16.70
2018-07-23T22:37:51.903Z,16.60
2018-07-23T22:40:20.307Z,16.60
2018-07-23T22:42:48.593Z,16.70
2018-07-23T22:45:16.839Z,16.70
2018-07-23T22:47:45.047Z,16.60
2018-07-23T22:50:13.271Z,16.60
2018-07-23T22:52:41.517Z,16.60
2018-07-23T22:55:10.026Z,16.60
2018-07-23T22:57:38.349Z,16.50
2018-07-23T23:00:06.568Z,16.50
2018-07-23T23:02:34.766Z,16.40
2018-07-23T23:05:02.995Z,16.40
2018-07-23T23:07:31.203Z,16.40
2018-07-23T23:09:59.413Z,16.30
2018-07-23T23:12:27.634Z,16.30
2018-07-23T23:14:56.061Z,16.30
2018-07-23T23:17:24.631Z,16.20
2018-07-23T23:19:53.394Z,16.20
2018-07-23T23:22:22.182Z,16.20
2018-07-23T23:24:50.759Z,16.10
2018-07-23T23:27:19.191Z,16.00
2018-07-23T23:29:47.419Z,16.00
2018-07-23T23:32:15.622Z,15.90
2018-07-23T23:34:43.831Z,15.90
2018-07-23T23:37:12.122Z,15.90
2018-07-23T23:39:40.502Z,15.90
2018-07-23T23:42:08.867Z,15.80
2018-07-23T23:44:37.086Z,15.80
2018-07-23T23:47:05.331Z,15.70
2018-07-23T23:49:33.555Z,15.70
2018-07-23T23:52:01.779Z,15.80
2018-07-23T23:54:29.991Z,15.70
2018-07-23T23:56:58.297Z,15.60
2018-07-23T23:59:26.649Z,15.50
